Time;durP1;ratioP1;P1;durP2;ratioP2;P2;SDS_P1;SDS_P2;PMS_P1;PMS_P2;Temp;Humidity;BMP_temperature;BMP_pressure;BME280_temperature;BME280_humidity;BME280_pressure;Samples;Min_cycle;Max_cycle;Signal;HPM_P1;HPM_P2
2024/01/09 00:07:40;;;;;;;11.50;3.70;;;-4.40;99.90;;;;;;5516403;23;20076;-93
2024/01/09 00:29:18;;;;;;;10.83;3.80;;;-3.00;99.90;;;;;;5289055;23;20091;-93
2024/01/09 01:06:22;;;;;;;8.27;3.00;;;-5.00;99.90;;;;;;5304106;23;20053;-93
2024/01/09 01:15:34;;;;;;;;;;;;;;;;;;;;;
2024/01/09 01:26:25;;;;;;;9.87;3.13;;;-5.70;99.90;;;;;;4932734;23;20044;-94
2024/01/09 01:42:11;;;;;;;9.13;2.93;;;-5.00;99.90;;;;;;5038015;23;20420;31
2024/01/09 03:11:14;;;;;;;8.53;3.20;;;-5.50;99.90;;;;;;5665234;23;20026;-95
2024/01/09 07:09:52;;;;;;;10.37;3.10;;;-6.60;99.90;;;;;;5720057;23;20056;-86
2024/01/09 07:12:19;;;;;;;10.73;3.30;;;-4.20;99.90;;;;;;4918430;29;20048;-86
2024/01/09 07:14:48;;;;;;;9.57;3.33;;;-6.80;99.90;;;;;;4919833;29;20086;-87
2024/01/09 07:20:51;;;;;;;12.48;4.00;;;-5.50;99.90;;;;;;4936766;29;20042;-90
2024/01/09 07:24:02;;;;;;;11.63;3.30;;;-6.70;99.90;;;;;;4909078;29;20043;-89
2024/01/09 07:41:29;;;;;;;9.77;3.17;;;-7.20;99.90;;;;;;4822552;29;20523;-90
2024/01/09 07:57:34;;;;;;;10.27;3.60;;;-6.60;99.90;;;;;;5074843;23;20055;-94
2024/01/09 08:03:44;;;;;;;10.45;3.15;;;-5.00;99.90;;;;;;4899291;29;20087;-89
2024/01/09 08:06:35;;;;;;;10.77;3.17;;;-7.60;99.90;;;;;;4899767;29;20052;-89
2024/01/09 08:09:07;;;;;;;10.87;3.50;;;-6.70;99.90;;;;;;4898629;29;20138;-89
2024/01/09 08:11:38;;;;;;;8.93;3.00;;;-6.60;99.90;;;;;;4899906;29;20052;-90
2024/01/09 08:14:44;;;;;;;9.57;3.30;;;-6.70;99.90;;;;;;4907662;29;20437;-91
2024/01/09 08:17:34;;;;;;;9.97;3.10;;;-7.10;99.90;;;;;;4913233;29;20052;-90
2024/01/09 08:20:15;;;;;;;11.47;3.63;;;-6.80;99.90;;;;;;4899440;29;20408;-90
2024/01/09 08:22:44;;;;;;;9.63;3.17;;;-6.30;99.90;;;;;;4899373;29;20274;-90
2024/01/09 08:25:10;;;;;;;10.03;3.47;;;-5.50;99.90;;;;;;4898694;29;20044;-90
2024/01/09 08:28:10;;;;;;;10.33;3.33;;;-7.60;99.90;;;;;;4899295;29;20044;-90
2024/01/09 08:30:48;;;;;;;11.93;3.77;;;-6.30;99.90;;;;;;4899620;29;20416;-90
2024/01/09 08:33:34;;;;;;;11.07;3.50;;;-6.60;99.90;;;;;;4899380;29;20052;-90
2024/01/09 08:36:12;;;;;;;10.00;3.30;;;-6.50;99.90;;;;;;4898777;29;20048;-89
2024/01/09 08:38:53;;;;;;;9.43;3.33;;;-6.60;99.90;;;;;;4899488;29;20511;-89
2024/01/09 08:41:28;;;;;;;10.17;3.30;;;-6.60;99.90;;;;;;4898908;29;20690;-89
2024/01/09 08:43:53;;;;;;;10.47;3.50;;;-6.40;99.90;;;;;;4940124;23;20588;-89
2024/01/09 08:46:19;;;;;;;9.83;3.60;;;-6.30;99.90;;;;;;4911244;29;20131;-88
2024/01/09 08:48:48;;;;;;;9.83;3.30;;;-6.20;99.90;;;;;;4899349;29;20127;-89
2024/01/09 08:51:17;;;;;;;11.87;3.53;;;-6.20;99.90;;;;;;4912165;29;20126;-89
2024/01/09 08:53:42;;;;;;;10.13;3.20;;;-6.20;99.90;;;;;;4939791;29;20059;-89
2024/01/09 08:56:09;;;;;;;9.30;3.27;;;-6.20;99.90;;;;;;4936418;29;20035;-89
2024/01/09 08:58:35;;;;;;;11.70;3.30;;;-6.10;99.90;;;;;;4940660;29;20047;-89
2024/01/09 09:01:01;;;;;;;10.33;3.23;;;-6.20;99.90;;;;;;4939869;29;20086;-90
2024/01/09 09:03:27;;;;;;;9.60;3.30;;;-6.10;99.90;;;;;;4939535;29;20051;-90
2024/01/09 09:06:09;;;;;;;11.27;3.50;;;-6.10;99.90;;;;;;4939919;29;20107;-91
2024/01/09 09:08:41;;;;;;;12.97;3.97;;;-6.50;99.90;;;;;;4967354;23;20048;-90
2024/01/09 09:12:01;;;;;;;10.27;3.57;;;-7.30;99.90;;;;;;4905107;29;20048;-90
2024/01/09 09:15:16;;;;;;;11.17;3.37;;;-6.70;99.90;;;;;;4897464;29;20185;-90
2024/01/09 09:17:42;;;;;;;10.90;3.67;;;-6.80;99.90;;;;;;4881834;29;20208;-89
2024/01/09 09:20:11;;;;;;;9.43;3.10;;;-6.10;99.90;;;;;;4882180;29;20048;-91
2024/01/09 09:22:46;;;;;;;11.27;3.77;;;-5.50;99.90;;;;;;4881242;29;20153;-91
2024/01/09 09:25:23;;;;;;;10.33;3.20;;;-5.70;99.90;;;;;;4881898;29;20204;-90
2024/01/09 09:27:53;;;;;;;11.00;3.40;;;-5.90;99.90;;;;;;4896818;29;20481;-90
2024/01/09 09:30:34;;;;;;;10.53;3.40;;;-5.70;99.90;;;;;;4863301;29;20067;-90
2024/01/09 09:32:59;;;;;;;8.93;3.17;;;-5.80;99.90;;;;;;4879295;29;20048;-90
2024/01/09 09:36:06;;;;;;;8.97;3.00;;;-5.40;99.90;;;;;;4897427;29;20073;-90
2024/01/09 09:38:43;;;;;;;11.00;3.80;;;-4.30;99.90;;;;;;4897088;29;20089;-90
2024/01/09 09:41:20;;;;;;;10.60;3.57;;;-5.50;99.90;;;;;;4897714;29;20128;-90
2024/01/09 09:43:50;;;;;;;9.47;3.03;;;-5.80;99.90;;;;;;4897984;29;20045;-90
2024/01/09 09:46:23;;;;;;;11.03;3.60;;;-5.30;99.90;;;;;;4914063;29;20060;-89
2024/01/09 09:48:52;;;;;;;11.27;4.00;;;-5.20;99.90;;;;;;4920675;29;20054;-90
2024/01/09 09:51:22;;;;;;;10.80;3.40;;;-5.20;99.90;;;;;;4921747;29;20079;-91
2024/01/09 09:53:48;;;;;;;9.63;3.40;;;-3.10;99.90;;;;;;4920172;29;20051;-91
2024/01/09 09:56:14;;;;;;;11.80;3.73;;;-5.10;99.90;;;;;;4920773;29;20400;-91
2024/01/09 09:58:43;;;;;;;9.80;3.00;;;-5.10;99.90;;;;;;4921219;29;20050;-91
2024/01/09 10:01:10;;;;;;;11.20;3.83;;;-5.00;99.90;;;;;;4918636;29;20043;-91
2024/01/09 10:03:41;;;;;;;10.60;2.90;;;-4.90;99.90;;;;;;4921759;29;20047;-91
2024/01/09 10:06:09;;;;;;;8.70;2.87;;;-4.80;99.90;;;;;;4912170;29;20044;-88
2024/01/09 10:08:35;;;;;;;13.10;3.57;;;-4.80;99.90;;;;;;4902922;29;20130;-90
2024/01/09 10:11:01;;;;;;;10.53;3.30;;;-4.70;99.90;;;;;;4901350;29;20040;-90
2024/01/09 10:13:27;;;;;;;9.03;3.13;;;-4.90;99.90;;;;;;4900407;29;20489;-91
2024/01/09 10:15:57;;;;;;;9.50;2.87;;;-4.60;99.90;;;;;;4900713;29;20048;-92
2024/01/09 10:18:22;;;;;;;8.93;3.00;;;-4.60;99.90;;;;;;4904061;29;20048;-91
2024/01/09 10:20:48;;;;;;;8.60;2.90;;;-4.50;99.90;;;;;;4899807;29;20052;-90
2024/01/09 10:23:14;;;;;;;10.87;3.10;;;-4.50;99.90;;;;;;4902818;29;20040;-90
2024/01/09 10:25:40;;;;;;;10.20;3.00;;;-4.40;99.90;;;;;;4901520;29;20040;-91
2024/01/09 10:28:09;;;;;;;8.57;2.80;;;-2.90;99.90;;;;;;4901630;29;20083;-91
2024/01/09 10:30:37;;;;;;;8.33;2.43;;;-4.40;99.90;;;;;;4901257;29;20048;-91
2024/01/09 10:33:09;;;;;;;8.67;2.70;;;-4.20;99.90;;;;;;4901893;29;20113;-93
2024/01/09 10:35:51;;;;;;;8.90;3.03;;;-4.20;99.90;;;;;;4914569;29;20051;-90
2024/01/09 10:38:25;;;;;;;10.40;3.63;;;-4.20;99.90;;;;;;4909366;29;20072;-90
2024/01/09 10:41:20;;;;;;;8.00;2.72;;;-4.20;99.90;;;;;;4898334;29;20557;-91
2024/01/09 10:43:49;;;;;;;8.87;2.60;;;-4.10;99.90;;;;;;4897701;29;20044;-89
2024/01/09 10:46:23;;;;;;;8.47;2.80;;;-1.80;99.90;;;;;;4899974;29;20044;-90
2024/01/09 10:49:03;;;;;;;10.10;2.43;;;-3.80;99.90;;;;;;4897403;29;20111;-90
2024/01/09 10:51:33;;;;;;;9.83;2.73;;;-3.60;99.90;;;;;;4899022;29;20119;-91
2024/01/09 10:54:09;;;;;;;8.53;2.70;;;-1.70;99.90;;;;;;4900522;29;20048;-90
2024/01/09 10:56:36;;;;;;;9.10;2.60;;;-2.00;99.90;;;;;;4899448;29;20100;-91
2024/01/09 10:59:05;;;;;;;9.20;2.77;;;-3.50;99.90;;;;;;4899580;29;20492;-94
2024/01/09 11:01:34;;;;;;;7.23;2.30;;;-2.50;99.90;;;;;;4903038;29;20112;-91
2024/01/09 11:04:00;;;;;;;9.80;2.77;;;-3.10;99.90;;;;;;4899204;29;20143;-92
2024/01/09 11:06:35;;;;;;;9.00;2.73;;;-3.10;99.90;;;;;;4900609;29;20048;-93
2024/01/09 11:09:11;;;;;;;8.43;2.70;;;-3.20;99.90;;;;;;4897642;29;20067;-94
2024/01/09 11:11:39;;;;;;;8.50;2.60;;;-2.20;99.90;;;;;;4900664;29;20052;-92
2024/01/09 11:14:07;;;;;;;8.07;2.60;;;-2.70;99.90;;;;;;4900292;29;20515;-93
2024/01/09 11:16:44;;;;;;;8.40;2.73;;;-2.60;99.90;;;;;;4899458;29;20060;-93
2024/01/09 11:19:21;;;;;;;9.40;3.27;;;-2.10;99.90;;;;;;4899765;29;20044;-92
2024/01/09 11:21:48;;;;;;;9.07;2.80;;;-2.80;99.90;;;;;;4900442;29;20052;-93
2024/01/09 11:24:40;;;;;;;8.60;2.93;;;-1.40;99.90;;;;;;4898938;29;20048;-88
2024/01/09 11:27:18;;;;;;;8.37;2.60;;;-1.00;99.90;;;;;;4900073;29;20044;-92
2024/01/09 11:30:01;;;;;;;;;;;;;;;;;;;;;
2024/01/09 11:32:40;;;;;;;8.93;2.30;;;-2.00;99.90;;;;;;4898483;29;20130;-88
2024/01/09 11:35:25;;;;;;;8.17;2.50;;;-0.70;99.90;;;;;;4899550;29;20055;-92
2024/01/09 11:38:21;;;;;;;8.40;2.50;;;0.30;99.90;;;;;;4899174;29;20044;-91
2024/01/09 11:41:23;;;;;;;7.27;2.40;;;-2.20;99.90;;;;;;4898977;29;20063;-95
2024/01/09 11:44:02;;;;;;;7.80;2.40;;;0.10;99.90;;;;;;4876782;29;20147;-90
2024/01/09 11:46:30;;;;;;;9.73;3.00;;;-1.40;99.90;;;;;;4885166;29;20035;-90
2024/01/09 11:48:59;;;;;;;9.80;3.17;;;0.10;99.90;;;;;;4898827;29;20052;-88
2024/01/09 11:51:31;;;;;;;8.17;2.87;;;-1.30;99.90;;;;;;4899538;29;20040;-91
2024/01/09 11:54:02;;;;;;;8.30;2.50;;;-1.30;99.90;;;;;;4898493;29;20507;-89
2024/01/09 12:00:18;;;;;;;8.60;2.83;;;-1.30;99.90;;;;;;4913552;29;20052;-89
2024/01/09 12:02:44;;;;;;;7.30;2.30;;;-1.30;99.90;;;;;;4915188;29;20105;-91
2024/01/09 12:05:09;;;;;;;7.83;2.37;;;0.00;99.90;;;;;;4915270;29;20040;-91
2024/01/09 12:07:40;;;;;;;9.40;2.90;;;-1.40;99.90;;;;;;4913111;29;20040;-86
2024/01/09 12:10:15;;;;;;;9.20;2.73;;;0.00;99.90;;;;;;4912567;29;20055;-89
2024/01/09 12:12:41;;;;;;;7.80;2.60;;;-1.50;99.90;;;;;;4915070;29;20064;-89
2024/01/09 12:15:19;;;;;;;11.70;2.80;;;-1.90;99.90;;;;;;4914101;29;20055;-88
2024/01/09 12:17:57;;;;;;;10.70;2.70;;;-1.90;99.90;;;;;;4918424;29;20056;-88
2024/01/09 12:20:23;;;;;;;9.40;2.60;;;-1.70;99.90;;;;;;4914679;29;20044;-88
2024/01/09 12:22:49;;;;;;;7.93;2.50;;;-1.80;99.90;;;;;;4914249;29;20052;-88
2024/01/09 12:25:16;;;;;;;8.50;2.73;;;-1.70;99.90;;;;;;4918149;29;20127;-88
2024/01/09 12:27:42;;;;;;;8.40;2.73;;;-1.80;99.90;;;;;;4915804;29;20044;-89
2024/01/09 12:30:13;;;;;;;8.33;2.57;;;-0.10;99.90;;;;;;4916579;29;20040;-89
2024/01/09 12:32:53;;;;;;;8.47;3.00;;;-1.70;99.90;;;;;;4919534;29;20055;-89
2024/01/09 12:35:19;;;;;;;8.17;2.50;;;-1.90;99.90;;;;;;4941214;23;20126;-89
2024/01/09 12:37:46;;;;;;;8.67;2.90;;;-1.60;99.90;;;;;;4922362;29;20408;-88
2024/01/09 12:40:19;;;;;;;8.40;2.63;;;-1.50;99.90;;;;;;4939980;29;20051;-88
2024/01/09 12:42:45;;;;;;;7.93;2.63;;;-1.50;99.90;;;;;;4936958;29;20051;-90
2024/01/09 12:45:11;;;;;;;9.37;2.60;;;-0.80;99.90;;;;;;4956808;28;20533;-88
2024/01/09 12:47:41;;;;;;;7.97;2.80;;;-1.40;99.90;;;;;;4941634;29;20126;-89
2024/01/09 12:50:09;;;;;;;8.47;2.80;;;-1.40;99.90;;;;;;4939977;29;20047;-88
2024/01/09 12:52:41;;;;;;;7.97;2.70;;;-1.10;99.90;;;;;;4940352;29;20058;-86
2024/01/09 12:55:10;;;;;;;9.73;3.30;;;-1.20;96.80;;;;;;4939351;29;20130;-89
2024/01/09 12:57:39;;;;;;;9.10;3.27;;;-1.00;99.90;;;;;;4923935;29;20071;-87
2024/01/09 13:00:15;;;;;;;8.90;2.60;;;-1.10;99.90;;;;;;4920251;29;20114;-87
2024/01/09 13:02:54;;;;;;;9.40;3.00;;;-0.80;99.90;;;;;;4918155;29;20060;-88
2024/01/09 13:05:22;;;;;;;9.00;2.93;;;-1.30;99.90;;;;;;4926738;29;20070;-87
2024/01/09 13:07:59;;;;;;;7.53;2.80;;;-1.00;99.90;;;;;;4920944;29;20464;-87
2024/01/09 13:10:40;;;;;;;8.43;2.90;;;-1.00;99.90;;;;;;4920421;29;20761;-85
2024/01/09 13:13:50;;;;;;;7.30;2.50;;;-0.80;99.90;;;;;;4922191;29;20039;-93
2024/01/09 13:16:16;;;;;;;8.40;3.00;;;-0.60;99.90;;;;;;4931225;29;20054;-85
2024/01/09 13:18:57;;;;;;;8.37;2.80;;;-1.00;99.90;;;;;;4939147;29;20403;-86
2024/01/09 13:21:32;;;;;;;9.20;3.13;;;-0.90;99.90;;;;;;4923847;29;20044;-87
2024/01/09 13:24:07;;;;;;;9.47;2.90;;;-1.60;99.90;;;;;;4924077;29;20126;-86
2024/01/09 13:26:33;;;;;;;9.37;2.93;;;-1.10;99.90;;;;;;4917153;29;20031;-86
2024/01/09 13:29:03;;;;;;;8.97;2.80;;;-0.50;99.90;;;;;;4920422;29;20566;-86
2024/01/09 13:31:28;;;;;;;8.67;2.63;;;0.80;99.90;;;;;;4919679;29;20059;-86
2024/01/09 13:33:54;;;;;;;8.10;2.70;;;-0.80;99.90;;;;;;4920881;29;20078;-87
2024/01/09 13:36:29;;;;;;;7.80;2.50;;;-0.80;99.90;;;;;;4936583;29;20496;-86
2024/01/09 13:39:14;;;;;;;7.93;2.73;;;-1.70;98.90;;;;;;4916553;29;20051;-86
2024/01/09 13:41:49;;;;;;;7.80;2.47;;;-0.90;99.90;;;;;;4935470;29;20091;-86
2024/01/09 13:44:32;;;;;;;8.57;2.63;;;-1.00;99.90;;;;;;4917208;29;20055;-86
2024/01/09 13:47:10;;;;;;;7.90;2.65;;;-1.10;99.90;;;;;;4918022;29;20051;-86
2024/01/09 13:49:45;;;;;;;6.87;2.40;;;-1.00;99.90;;;;;;4920191;29;20090;-86
2024/01/09 13:52:11;;;;;;;7.60;2.50;;;-1.00;99.90;;;;;;4918223;29;20044;-86
2024/01/09 13:54:46;;;;;;;7.53;2.63;;;0.70;99.90;;;;;;4920399;29;20408;-86
2024/01/09 13:57:23;;;;;;;9.93;2.87;;;-1.10;99.90;;;;;;4919153;29;20444;-86
2024/01/09 13:59:49;;;;;;;8.83;3.20;;;-0.10;99.90;;;;;;4920165;29;20484;-87
2024/01/09 14:02:45;;;;;;;8.43;2.77;;;-1.00;99.90;;;;;;4918566;29;20051;-85
2024/01/09 14:05:22;;;;;;;8.17;2.67;;;0.40;99.90;;;;;;4915977;29;20055;-85
2024/01/09 14:07:48;;;;;;;9.67;2.60;;;-1.10;99.90;;;;;;4917553;29;20055;-86
2024/01/09 14:10:14;;;;;;;7.77;2.70;;;1.10;99.90;;;;;;4919538;29;20040;-86
2024/01/09 14:12:52;;;;;;;9.87;2.70;;;0.60;99.90;;;;;;4919300;29;20479;-86
2024/01/09 14:15:37;;;;;;;8.17;2.60;;;-1.00;99.90;;;;;;4920150;29;20048;-87
2024/01/09 14:18:05;;;;;;;8.70;2.30;;;-1.10;99.90;;;;;;4918949;29;20067;-86
2024/01/09 14:20:31;;;;;;;8.93;2.97;;;-1.10;99.90;;;;;;4918457;29;20054;-86
2024/01/09 14:23:05;;;;;;;11.53;2.87;;;-1.20;99.90;;;;;;4918391;29;20407;-86
2024/01/09 14:25:34;;;;;;;8.80;2.70;;;-1.00;99.90;;;;;;4918772;29;20130;-85
2024/01/09 14:28:05;;;;;;;9.63;2.70;;;-1.40;99.90;;;;;;4917771;29;20071;-86
2024/01/09 14:30:47;;;;;;;8.93;2.47;;;0.30;99.90;;;;;;4918306;29;20460;-85
2024/01/09 14:33:15;;;;;;;7.83;2.50;;;-2.00;99.90;;;;;;4918224;29;20559;-86
2024/01/09 14:36:03;;;;;;;9.47;2.80;;;-2.20;99.90;;;;;;4917257;29;20063;-85
2024/01/09 14:38:29;;;;;;;8.47;2.60;;;-0.20;99.90;;;;;;4916411;29;20210;-85
2024/01/09 14:41:04;;;;;;;8.20;2.90;;;-1.80;99.90;;;;;;4917872;29;20158;-85
2024/01/09 14:43:41;;;;;;;10.47;2.90;;;-1.90;99.90;;;;;;4914421;29;20441;-85
2024/01/09 14:46:07;;;;;;;8.17;2.70;;;-1.30;99.90;;;;;;4917249;29;20107;-84
2024/01/09 14:48:45;;;;;;;8.17;2.80;;;-1.80;99.90;;;;;;4917368;29;20040;-84
2024/01/09 14:51:47;;;;;;;8.43;2.30;;;-2.20;99.90;;;;;;4918833;29;20098;-85
2024/01/09 14:54:28;;;;;;;9.10;2.63;;;-1.90;99.90;;;;;;4916832;29;20071;-85
2024/01/09 14:57:09;;;;;;;;;;;;;;;;;;;;;
2024/01/09 14:59:51;;;;;;;7.07;2.30;;;-0.60;99.90;;;;;;4914810;29;20109;-86
2024/01/09 15:02:26;;;;;;;7.50;2.70;;;-1.70;99.90;;;;;;4916225;29;20480;-85
2024/01/09 15:05:08;;;;;;;;;;;;;;;;;;;;;
2024/01/09 15:08:24;;;;;;;7.73;2.27;;;-1.00;99.90;;;;;;4892790;29;20508;-85
2024/01/09 15:11:04;;;;;;;6.70;2.17;;;-1.90;99.90;;;;;;4874608;29;20055;-86
2024/01/09 15:13:45;;;;;;;7.70;2.40;;;-2.00;99.90;;;;;;4910260;29;20062;-85
2024/01/09 15:16:10;;;;;;;7.33;2.40;;;-0.80;99.90;;;;;;4914548;29;20039;-86
2024/01/09 15:18:36;;;;;;;8.50;2.40;;;-2.50;99.90;;;;;;4917137;29;20366;-86
2024/01/09 15:21:04;;;;;;;6.83;2.17;;;-2.30;99.90;;;;;;4916945;29;20373;-85
2024/01/09 15:23:49;;;;;;;8.17;2.37;;;-1.60;99.90;;;;;;4916947;29;20051;-86
2024/01/09 15:26:30;;;;;;;6.17;2.03;;;-2.70;99.90;;;;;;4917848;29;20138;-84
2024/01/09 15:28:56;;;;;;;7.83;2.60;;;-2.80;99.90;;;;;;4918288;29;20594;-85
2024/01/09 15:31:21;;;;;;;11.67;3.97;;;-2.50;99.90;;;;;;4934252;29;20043;-86
2024/01/09 15:33:48;;;;;;;8.07;3.00;;;-2.40;99.90;;;;;;4918586;29;20428;-85
2024/01/09 15:36:14;;;;;;;8.93;2.60;;;-2.40;99.90;;;;;;4918463;29;20114;-87
2024/01/09 15:38:40;;;;;;;7.53;2.40;;;-2.50;99.90;;;;;;4917694;29;20062;-87
2024/01/09 15:41:09;;;;;;;8.57;2.63;;;-2.50;99.90;;;;;;4918407;29;20039;-84
2024/01/09 15:43:35;;;;;;;7.47;2.43;;;-2.50;99.90;;;;;;4913975;29;20055;-85
2024/01/09 15:46:02;;;;;;;11.80;2.67;;;-2.50;99.90;;;;;;4916569;29;20048;-87
2024/01/09 15:48:28;;;;;;;6.70;2.20;;;-2.60;99.90;;;;;;4921110;29;20069;-86
2024/01/09 15:50:54;;;;;;;9.20;2.50;;;-2.60;99.90;;;;;;4936934;29;20051;-87
2024/01/09 15:53:20;;;;;;;17.90;10.47;;;-2.70;99.90;;;;;;4936978;29;20047;-86
2024/01/09 15:55:52;;;;;;;10.63;4.67;;;-2.70;99.90;;;;;;4937548;29;20050;-87
2024/01/09 15:58:35;;;;;;;10.57;4.37;;;-2.90;99.90;;;;;;4930261;23;20068;-85
2024/01/09 16:01:03;;;;;;;9.68;4.82;;;-3.10;99.90;;;;;;4917879;29;20103;-86
2024/01/09 16:03:32;;;;;;;9.83;3.73;;;-1.90;99.90;;;;;;4917689;29;20091;-85
2024/01/09 16:06:04;;;;;;;11.33;3.50;;;-3.00;99.90;;;;;;4917126;29;20078;-86
2024/01/09 16:51:23;;;;;;;10.23;2.90;;;-1.50;99.90;;;;;;4912261;29;20150;-95
2024/01/09 17:40:10;;;;;;;9.73;3.87;;;-3.90;99.90;;;;;;5310186;23;20077;-92
2024/01/09 17:42:41;;;;;;;10.30;3.90;;;-5.10;99.90;;;;;;4942963;28;20410;-90
2024/01/09 17:45:46;;;;;;;9.50;3.63;;;-2.50;99.90;;;;;;4939404;29;20043;-93
2024/01/09 17:48:24;;;;;;;;;;;-2.40;99.90;;;;;;4882561;29;20052;-95
2024/01/09 17:50:53;;;;;;;19.87;9.20;;;-3.80;99.90;;;;;;4882486;29;19978;-93
2024/01/09 17:53:31;;;;;;;15.17;7.57;;;-4.30;99.90;;;;;;4883259;29;20055;-93
2024/01/09 17:56:29;;;;;;;10.27;4.50;;;-3.80;99.90;;;;;;4882263;29;20081;-92
2024/01/09 18:01:53;;;;;;;10.63;4.60;;;-4.10;99.90;;;;;;4963237;23;20051;-89
2024/01/09 18:06:49;;;;;;;10.53;4.33;;;-4.20;99.90;;;;;;4889212;29;20040;-91
2024/01/09 19:13:12;;;;;;;12.47;5.40;;;-4.60;99.90;;;;;;4918260;29;20453;-91
2024/01/09 19:15:42;;;;;;;10.80;4.70;;;-2.80;99.90;;;;;;4916124;29;20052;-91
2024/01/09 19:18:08;;;;;;;12.60;5.80;;;-1.90;99.90;;;;;;4916325;29;20118;-91
2024/01/09 19:24:00;;;;;;;13.80;5.17;;;-4.50;99.90;;;;;;5119349;23;20509;-91
2024/01/09 19:26:46;;;;;;;12.60;5.20;;;-5.10;99.90;;;;;;4900703;29;20111;-94
2024/01/09 19:29:30;;;;;;;14.25;5.80;;;-4.70;99.90;;;;;;4888333;29;20050;-94
2024/01/09 19:32:13;;;;;;;12.37;5.57;;;-3.60;99.90;;;;;;4900029;29;20135;-94
2024/01/09 19:34:58;;;;;;;11.73;5.37;;;-3.60;99.90;;;;;;4897234;29;20063;-93
2024/01/09 19:37:48;;;;;;;15.80;5.67;;;-4.50;99.90;;;;;;4899183;29;20056;-94
2024/01/09 19:40:14;;;;;;;13.43;6.30;;;-4.70;99.90;;;;;;4901006;29;20119;-94
2024/01/09 19:43:15;;;;;;;13.30;6.20;;;-3.90;99.90;;;;;;4886076;29;20052;-92
2024/01/09 19:46:14;;;;;;;13.40;5.93;;;-4.30;99.90;;;;;;4900684;29;20443;-92
2024/01/09 19:49:34;;;;;;;13.10;5.53;;;-4.90;99.90;;;;;;4901633;29;20099;-91
2024/01/09 19:55:12;;;;;;;14.90;5.97;;;-5.80;99.90;;;;;;4877895;29;20049;-92
2024/01/09 19:58:01;;;;;;;13.00;5.93;;;-4.50;99.90;;;;;;4861751;29;20122;-94
2024/01/09 20:04:39;;;;;;;13.60;6.00;;;-5.10;99.90;;;;;;5225757;23;20133;-93
2024/01/09 20:07:55;;;;;;;13.80;5.93;;;-4.50;99.90;;;;;;4920147;29;20052;-91
2024/01/09 20:10:21;;;;;;;13.23;6.33;;;-5.10;99.90;;;;;;4919016;29;20508;-92
2024/01/09 20:13:12;;;;;;;13.23;5.87;;;-4.30;99.90;;;;;;4917390;29;20044;-91
2024/01/09 20:15:58;;;;;;;13.30;6.37;;;-3.30;99.90;;;;;;4919711;29;20484;-92
2024/01/09 20:18:46;;;;;;;14.10;6.03;;;-3.10;99.90;;;;;;4918363;29;20409;-91
2024/01/09 20:21:35;;;;;;;12.60;5.70;;;-2.00;99.90;;;;;;4926090;29;20051;-92
2024/01/09 21:11:30;;;;;;;15.80;6.80;;;-3.20;99.90;;;;;;5021576;23;20055;-91
2024/01/09 21:13:59;;;;;;;14.23;6.90;;;-4.40;99.90;;;;;;4901985;29;20138;-92
2024/01/09 21:16:27;;;;;;;18.73;10.67;;;-4.40;99.90;;;;;;4902247;29;20047;-92
2024/01/09 21:35:53;;;;;;;15.57;7.47;;;-3.40;99.90;;;;;;4917353;29;20147;-92
2024/01/09 21:39:22;;;;;;;15.13;7.53;;;-2.50;99.90;;;;;;4902112;29;20052;-92
2024/01/09 21:41:52;;;;;;;16.60;8.57;;;-3.00;99.90;;;;;;4918859;29;20060;-92
2024/01/09 21:44:18;;;;;;;14.90;8.13;;;-4.70;99.90;;;;;;4901665;29;20104;-92
2024/01/09 21:47:09;;;;;;;15.10;8.20;;;-4.80;99.90;;;;;;4900008;29;20049;-91
2024/01/09 21:49:59;;;;;;;14.37;7.17;;;-5.50;99.90;;;;;;4902495;29;20116;-91
2024/01/09 21:52:32;;;;;;;16.47;7.80;;;-5.10;99.90;;;;;;4904517;29;20055;-94
2024/01/09 22:04:07;;;;;;;17.20;7.73;;;-4.20;99.90;;;;;;5419039;23;20027;31
2024/01/09 22:59:22;;;;;;;17.80;8.10;;;-4.70;99.90;;;;;;5726524;23;21136;-95
2024/01/09 23:23:44;;;;;;;15.90;7.50;;;-4.80;99.90;;;;;;5580346;23;20056;31
